Time;durP1;ratioP1;P1;durP2;ratioP2;P2;SDS_P1;SDS_P2;PMS_P1;PMS_P2;Temp;Humidity;BMP_temperature;BMP_pressure;BME280_temperature;BME280_humidity;BME280_pressure;Samples;Min_cycle;Max_cycle;Signal;HPM_P1;HPM_P2
2021/06/04 00:01:11;;;;;;;9.50;6.40;;;;;;;17.78;60.03;100749.25;5027967;28;20025;-24
2021/06/04 00:03:37;;;;;;;8.43;6.30;;;;;;;17.42;61.28;100736.06;5026227;28;20049;-24
2021/06/04 00:06:03;;;;;;;11.02;6.40;;;;;;;17.74;59.77;100730.03;5027923;28;20025;-26
2021/06/04 00:08:28;;;;;;;8.43;6.10;;;;;;;17.87;59.57;100745.88;5027656;28;20095;-24
2021/06/04 00:10:56;;;;;;;8.55;6.28;;;;;;;17.84;59.73;100757.19;5027775;28;20029;-24
2021/06/04 00:13:28;;;;;;;;;;;;;;;17.99;58.94;100751.16;5026670;28;20053;-24
2021/06/04 00:16:16;;;;;;;7.40;5.60;;;;;;;17.92;58.90;100745.13;5010172;28;20024;-24
2021/06/04 00:18:42;;;;;;;;;;;;;;;17.96;58.40;100748.97;5027413;28;20045;-24
2021/06/04 00:21:13;;;;;;;8.55;5.65;;;;;;;17.44;60.69;100743.91;5027579;28;20004;-24
2021/06/04 00:23:39;;;;;;;8.77;6.00;;;;;;;17.47;61.02;100751.53;5027580;28;20033;-24
2021/06/04 00:26:05;;;;;;;8.90;6.03;;;;;;;17.53;60.73;100739.75;5027727;28;20505;-24
2021/06/04 00:28:30;;;;;;;8.40;5.97;;;;;;;17.40;61.06;100742.78;5027729;28;20112;-24
2021/06/04 00:30:56;;;;;;;8.25;6.95;;;;;;;16.80;62.50;100726.19;5027580;28;20409;-24
2021/06/04 00:33:22;;;;;;;10.35;7.13;;;;;;;16.68;63.49;100738.91;5027648;28;20053;-24
2021/06/04 00:35:47;;;;;;;9.35;6.93;;;;;;;16.84;63.59;100740.03;5027543;28;20025;-24
2021/06/04 00:38:13;;;;;;;51.53;10.25;;;;;;;17.32;62.26;100749.41;5026981;28;20029;-25
2021/06/04 00:40:44;;;;;;;12.27;7.20;;;;;;;16.82;63.49;100740.28;5026280;28;20096;-24
2021/06/04 00:43:10;;;;;;;11.18;7.35;;;;;;;16.46;64.84;100750.38;5027553;28;20025;-24
2021/06/04 00:45:38;;;;;;;11.18;7.30;;;;;;;16.27;65.47;100732.78;5027492;28;20034;-24
2021/06/04 00:48:03;;;;;;;13.63;7.75;;;;;;;16.34;65.09;100728.06;5027479;28;20029;-24
2021/06/04 00:50:36;;;;;;;15.07;7.90;;;;;;;16.80;63.38;100725.38;5025824;28;20587;-24
2021/06/04 00:53:02;;;;;;;17.35;9.05;;;;;;;17.04;62.69;100728.75;5025945;28;20053;-25
2021/06/04 00:55:27;;;;;;;16.10;8.55;;;;;;;17.51;60.93;100732.94;5026190;28;20105;-24
2021/06/04 00:57:54;;;;;;;12.43;8.77;;;;;;;17.61;60.09;100725.84;5027363;28;20084;-24
2021/06/04 01:00:27;;;;;;;11.73;7.82;;;;;;;17.47;60.71;100730.75;5025851;28;20053;-24
2021/06/04 01:02:53;;;;;;;11.82;7.63;;;;;;;17.52;60.58;100726.50;5027322;28;20037;-24
2021/06/04 01:05:19;;;;;;;15.30;8.25;;;;;;;17.26;62.14;100734.22;5027157;28;20026;-25
2021/06/04 01:08:24;;;;;;;17.20;10.10;;;;;;;16.70;63.05;100715.25;5027304;28;20099;-24
2021/06/04 01:11:06;;;;;;;22.67;11.27;;;;;;;17.11;62.43;100737.50;5025647;28;20087;-24
2021/06/04 01:14:02;;;;;;;26.95;13.85;;;;;;;16.93;63.17;100724.28;5025936;28;20044;-25
2021/06/04 01:16:53;;;;;;;21.30;10.48;;;;;;;17.03;62.45;100714.47;5027822;28;20026;-24
2021/06/04 01:19:39;;;;;;;20.73;9.93;;;;;;;17.37;61.75;100724.41;5015304;28;20128;-24
2021/06/04 01:22:10;;;;;;;23.10;11.23;;;;;;;17.27;62.04;100731.28;5030290;28;20049;-24
2021/06/04 01:24:45;;;;;;;37.88;16.17;;;;;;;16.36;64.68;100731.34;5013646;28;20112;-25
2021/06/04 01:27:32;;;;;;;32.90;14.93;;;;;;;16.40;65.20;100720.91;5031112;28;20022;-24
2021/06/04 01:30:24;;;;;;;19.27;11.55;;;;;;;17.02;63.00;100728.19;5029597;28;20501;-25
2021/06/04 01:32:50;;;;;;;22.50;10.63;;;;;;;16.91;63.71;100737.16;5014091;28;20040;-24
2021/06/04 01:35:30;;;;;;;20.85;10.75;;;;;;;16.64;63.56;100713.53;5013254;28;20037;-24
2021/06/04 01:37:57;;;;;;;17.17;9.70;;;;;;;16.85;63.27;100736.25;5014854;28;20033;-25
2021/06/04 01:40:33;;;;;;;16.67;9.55;;;;;;;16.73;64.14;100733.59;5030836;28;20091;-24
2021/06/04 01:43:02;;;;;;;16.10;8.82;;;;;;;16.29;65.96;100737.94;5029452;28;20059;-24
2021/06/04 01:45:30;;;;;;;11.48;7.05;;;;;;;15.72;66.88;100726.03;5013311;28;20029;-24
2021/06/04 01:48:01;;;;;;;11.13;7.13;;;;;;;15.45;68.05;100742.66;5029688;28;20072;-24
2021/06/04 01:50:32;;;;;;;13.32;8.32;;;;;;;15.97;67.00;100749.16;5012698;28;20084;-24
2021/06/04 01:53:00;;;;;;;12.27;7.47;;;;;;;16.06;66.03;100732.41;5013722;28;20053;-26
2021/06/04 01:55:28;;;;;;;11.88;7.63;;;;;;;16.51;64.41;100749.66;5013016;28;20429;-26
2021/06/04 01:57:59;;;;;;;21.95;11.65;;;;;;;16.36;65.91;100758.25;5013274;28;20045;-25
2021/06/04 02:00:24;;;;;;;14.60;9.80;;;;;;;16.44;65.51;100765.94;5013124;28;20136;-25
2021/06/04 02:02:50;;;;;;;13.27;9.32;;;;;;;16.38;65.44;100756.13;5030389;28;20040;-25
2021/06/04 02:05:18;;;;;;;12.90;8.48;;;;;;;16.41;64.72;100733.31;5030469;28;20104;-25
2021/06/04 02:07:44;;;;;;;11.85;7.80;;;;;;;16.27;65.85;100740.88;5030182;28;20468;-25
2021/06/04 02:10:13;;;;;;;10.48;7.68;;;;;;;16.42;65.61;100756.47;5030097;28;20059;-25
2021/06/04 02:12:39;;;;;;;10.77;7.25;;;;;;;16.56;65.08;100746.25;5030361;28;20037;-25
2021/06/04 02:15:13;;;;;;;9.40;6.95;;;;;;;16.51;64.69;100755.06;5028691;28;20036;-25
2021/06/04 02:17:52;;;;;;;9.07;7.10;;;;;;;16.73;63.75;100760.53;5028644;28;20030;-25
2021/06/04 02:20:32;;;;;;;8.90;7.35;;;;;;;16.73;64.04;100757.84;5029886;28;20052;-25
2021/06/04 02:22:58;;;;;;;11.82;7.68;;;;;;;16.91;63.71;100762.22;5012876;28;20490;-24
2021/06/04 02:25:44;;;;;;;14.95;8.82;;;;;;;16.82;64.38;100761.00;5029925;28;20029;-24
2021/06/04 02:28:39;;;;;;;10.23;7.63;;;;;;;16.53;65.43;100754.78;5029330;28;20090;-24
2021/06/04 02:31:16;;;;;;;11.52;8.48;;;;;;;16.32;65.75;100750.91;5029514;28;20099;-24
2021/06/04 02:34:11;;;;;;;9.63;7.78;;;;;;;16.27;65.46;100763.22;5028708;28;20056;-25
2021/06/04 02:36:40;;;;;;;12.25;8.00;;;;;;;16.13;65.81;100758.34;5013770;28;20166;-24
2021/06/04 02:39:16;;;;;;;12.68;8.65;;;;;;;16.42;65.39;100773.44;5028227;28;20386;-25
2021/06/04 02:41:44;;;;;;;12.50;7.80;;;;;;;16.50;64.25;100768.75;5012322;28;20498;-25
2021/06/04 02:44:18;;;;;;;11.27;8.15;;;;;;;16.37;65.15;100770.66;5028424;28;20040;-24
2021/06/04 02:46:46;;;;;;;26.05;9.18;;;;;;;16.38;64.65;100768.78;5028470;28;20040;-25
2021/06/04 02:49:12;;;;;;;10.48;8.10;;;;;;;16.67;63.64;100783.06;5012020;28;20030;-24
2021/06/04 02:51:56;;;;;;;12.18;8.63;;;;;;;16.61;63.49;100784.00;5027844;28;20037;-25
2021/06/04 02:54:25;;;;;;;9.70;8.10;;;;;;;16.28;64.78;100769.41;5029287;28;20037;-24
2021/06/04 02:57:02;;;;;;;12.60;7.80;;;;;;;16.56;64.19;100783.94;5029404;28;20029;-24
2021/06/04 02:59:33;;;;;;;13.02;8.50;;;;;;;16.38;64.83;100774.16;5028682;28;20040;-24
2021/06/04 03:02:04;;;;;;;12.27;7.78;;;;;;;15.81;66.34;100772.22;5029178;28;20112;-24
2021/06/04 03:04:32;;;;;;;10.48;7.35;;;;;;;15.70;66.37;100767.66;5027791;28;20037;-24
2021/06/04 03:06:59;;;;;;;12.82;8.60;;;;;;;15.96;66.29;100779.81;5029578;28;20527;-24
2021/06/04 03:09:31;;;;;;;18.73;9.00;;;;;;;16.32;64.66;100772.44;5029415;28;20490;-24
2021/06/04 03:12:03;;;;;;;14.40;9.32;;;;;;;16.37;64.82;100786.81;5029069;28;20124;-24
2021/06/04 03:14:28;;;;;;;14.38;9.50;;;;;;;16.62;63.73;100797.25;5028474;28;20036;-24
2021/06/04 03:16:55;;;;;;;12.45;8.07;;;;;;;16.37;64.75;100789.50;5027789;28;20025;-24
2021/06/04 03:19:20;;;;;;;10.07;8.60;;;;;;;16.11;65.56;100804.31;5028963;28;20151;-24
2021/06/04 03:21:58;;;;;;;10.70;8.65;;;;;;;15.59;67.70;100786.25;5027635;28;20116;-24
2021/06/04 03:24:27;;;;;;;11.63;8.43;;;;;;;15.86;67.44;100801.91;5028690;28;20037;-24
2021/06/04 03:26:52;;;;;;;12.88;8.75;;;;;;;15.62;67.52;100807.25;5027404;28;20095;-25
2021/06/04 03:29:18;;;;;;;13.27;8.50;;;;;;;15.81;66.17;100788.34;5028790;28;20041;-24
2021/06/04 03:31:47;;;;;;;14.95;9.50;;;;;;;16.09;65.28;100794.88;5028897;28;20022;-24
2021/06/04 03:34:12;;;;;;;13.82;10.43;;;;;;;16.25;64.96;100811.06;5028506;28;20036;-25
2021/06/04 03:36:40;;;;;;;13.23;8.65;;;;;;;16.22;65.36;100826.88;5027458;28;20033;-25
2021/06/04 03:39:08;;;;;;;12.80;9.47;;;;;;;16.33;65.10;100817.16;5027905;28;20033;-25
2021/06/04 03:41:34;;;;;;;14.38;9.43;;;;;;;16.11;66.10;100804.31;5028383;28;20374;-24
2021/06/04 03:44:00;;;;;;;12.82;9.27;;;;;;;15.95;67.42;100808.56;5027157;28;20072;-25
2021/06/04 03:46:25;;;;;;;13.38;8.88;;;;;;;15.57;67.76;100806.31;5027317;28;20033;-24
2021/06/04 03:48:51;;;;;;;12.95;10.07;;;;;;;16.15;66.48;100801.97;5028438;28;20528;-25
2021/06/04 03:51:28;;;;;;;13.50;9.98;;;;;;;16.20;65.51;100807.44;5028896;28;20052;-24
2021/06/04 03:53:53;;;;;;;12.32;9.77;;;;;;;15.94;66.99;100820.38;5028150;28;20406;-24
2021/06/04 03:56:19;;;;;;;14.05;10.35;;;;;;;15.95;67.07;100822.00;5026507;28;20033;-24
2021/06/04 03:58:45;;;;;;;16.75;11.23;;;;;;;15.99;67.28;100823.16;5027034;28;20048;-24
2021/06/04 04:01:16;;;;;;;15.85;11.15;;;;;;;16.25;66.37;100811.06;5027336;28;20037;-24
2021/06/04 04:03:42;;;;;;;14.88;10.48;;;;;;;16.48;65.40;100807.47;5026946;28;20116;-25
2021/06/04 04:06:07;;;;;;;14.13;10.75;;;;;;;16.11;66.61;100807.00;5028152;28;20079;-24
2021/06/04 04:08:33;;;;;;;13.20;11.30;;;;;;;16.19;67.56;100827.38;5028125;28;20029;-24
2021/06/04 04:10:59;;;;;;;17.83;11.50;;;;;;;16.25;67.21;100829.91;5027903;28;20095;-24
2021/06/04 04:13:25;;;;;;;14.00;10.52;;;;;;;16.27;66.89;100816.22;5028015;28;20033;-25
2021/06/04 04:15:51;;;;;;;16.70;11.68;;;;;;;16.61;66.56;100829.78;5027873;28;20029;-25
2021/06/04 04:18:17;;;;;;;15.57;11.43;;;;;;;16.70;66.48;100828.38;5027845;28;20038;-25
2021/06/04 04:20:45;;;;;;;13.57;10.27;;;;;;;16.83;65.59;100833.47;5027848;28;20030;-25
2021/06/04 04:23:21;;;;;;;13.70;10.20;;;;;;;16.58;65.85;100835.69;5026519;28;20559;-24
2021/06/04 04:25:47;;;;;;;14.18;10.25;;;;;;;16.57;66.81;100834.03;5026686;28;20083;-24
2021/06/04 04:28:15;;;;;;;15.05;10.65;;;;;;;16.62;66.24;100826.88;5027539;28;20063;-25
2021/06/04 04:30:41;;;;;;;15.55;10.52;;;;;;;16.91;65.67;100829.59;5027763;28;20040;-24
2021/06/04 04:33:07;;;;;;;15.73;11.55;;;;;;;17.01;65.59;100839.72;5027700;28;20422;-25
2021/06/04 04:35:33;;;;;;;14.32;11.50;;;;;;;17.10;65.06;100824.81;5027659;28;20021;-24
2021/06/04 04:37:59;;;;;;;19.90;12.50;;;;;;;17.35;63.82;100834.38;5027548;28;20034;-24
2021/06/04 04:40:26;;;;;;;17.48;13.23;;;;;;;17.10;64.56;100842.84;5026332;28;20033;-25
2021/06/04 04:42:52;;;;;;;14.37;12.23;;;;;;;17.13;64.00;100843.19;5027664;28;20029;-24
2021/06/04 04:45:20;;;;;;;16.58;11.90;;;;;;;16.98;64.48;100840.19;5026367;28;20025;-26
2021/06/04 04:47:46;;;;;;;15.48;12.75;;;;;;;17.06;64.33;100834.41;5027642;28;20029;-26
2021/06/04 04:50:12;;;;;;;13.13;11.35;;;;;;;16.78;64.63;100822.59;5027044;28;20482;-27
2021/06/04 04:52:38;;;;;;;15.60;12.38;;;;;;;16.68;64.99;100830.47;5026980;28;20110;-26
2021/06/04 04:55:05;;;;;;;16.33;11.98;;;;;;;16.15;66.59;100820.81;5027418;28;20425;-26
2021/06/04 04:57:30;;;;;;;15.45;11.95;;;;;;;16.78;65.31;100846.03;5027542;28;20041;-26
2021/06/04 04:59:56;;;;;;;15.35;12.25;;;;;;;16.82;64.86;100852.59;5027473;28;20049;-27
2021/06/04 05:02:22;;;;;;;16.00;12.93;;;;;;;16.54;66.30;100835.34;5027221;28;20052;-26
2021/06/04 05:04:48;;;;;;;15.88;13.10;;;;;;;16.90;64.54;100848.66;5027433;28;20029;-27
2021/06/04 05:07:13;;;;;;;16.05;11.82;;;;;;;17.03;64.97;100848.38;5027655;28;20080;-26
2021/06/04 05:09:39;;;;;;;16.95;12.18;;;;;;;17.03;65.28;100848.38;5027614;28;20134;-26
2021/06/04 05:12:05;;;;;;;16.25;11.88;;;;;;;17.15;64.18;100837.53;5026089;28;20112;-24
2021/06/04 05:14:30;;;;;;;15.02;11.93;;;;;;;17.29;63.35;100840.75;5026959;28;20851;-24
2021/06/04 05:16:56;;;;;;;13.27;10.60;;;;;;;17.21;63.22;100852.75;5027323;28;20108;-24
2021/06/04 05:19:21;;;;;;;12.82;10.60;;;;;;;17.09;63.30;100860.88;5027269;28;20026;-26
2021/06/04 05:21:47;;;;;;;13.02;10.73;;;;;;;17.25;63.58;100852.00;5027420;28;20064;-24
2021/06/04 05:24:13;;;;;;;15.20;10.32;;;;;;;17.34;63.50;100862.38;5027109;28;20084;-26
2021/06/04 05:26:39;;;;;;;15.35;10.07;;;;;;;17.41;62.62;100854.97;5025974;28;20111;-26
2021/06/04 05:29:05;;;;;;;11.32;9.40;;;;;;;17.09;62.20;100863.59;5027167;28;20103;-26
2021/06/04 05:31:30;;;;;;;11.40;9.23;;;;;;;16.91;63.43;100847.63;5027224;28;20091;-26
2021/06/04 05:33:56;;;;;;;10.85;8.82;;;;;;;17.06;62.78;100864.06;5027370;28;20041;-26
2021/06/04 05:36:26;;;;;;;12.93;9.18;;;;;;;17.11;62.62;100864.16;5026732;28;20099;-24
2021/06/04 05:38:51;;;;;;;19.83;14.23;;;;;;;17.26;62.59;100869.84;5027198;28;20026;-24
2021/06/04 05:41:17;;;;;;;12.07;10.15;;;;;;;17.11;62.00;100877.63;5027023;28;20037;-24
2021/06/04 05:43:43;;;;;;;10.77;9.00;;;;;;;17.01;61.19;100850.50;5026934;28;20036;-26
2021/06/04 05:46:09;;;;;;;15.80;9.88;;;;;;;17.25;61.68;100873.56;5026998;28;20495;-25
2021/06/04 05:48:35;;;;;;;10.70;9.05;;;;;;;17.11;61.37;100866.84;5027011;28;20029;-25
2021/06/04 05:51:02;;;;;;;13.30;11.10;;;;;;;17.41;62.39;100876.53;5026787;28;20521;-25
2021/06/04 05:53:29;;;;;;;13.10;9.40;;;;;;;17.78;60.10;100876.03;5026962;28;20857;-24
2021/06/04 05:55:56;;;;;;;12.05;9.50;;;;;;;17.66;62.29;100863.44;5025598;28;20095;-24
2021/06/04 05:58:22;;;;;;;13.77;10.10;;;;;;;17.78;60.25;100868.75;5026842;28;20513;-25
2021/06/04 06:00:50;;;;;;;12.57;9.05;;;;;;;17.60;60.22;100858.22;5025921;28;20044;-24
2021/06/04 06:03:19;;;;;;;13.45;9.60;;;;;;;17.31;60.88;100881.75;5028379;28;20029;-24
2021/06/04 06:05:44;;;;;;;33.20;21.10;;;;;;;17.71;60.98;100876.19;5030597;28;20100;-25
2021/06/04 06:08:10;;;;;;;25.95;18.27;;;;;;;17.33;62.30;100879.63;5030037;28;20112;-25
2021/06/04 06:10:36;;;;;;;15.38;11.63;;;;;;;17.62;62.16;100873.09;5030325;28;20025;-25
2021/06/04 06:13:02;;;;;;;11.88;9.15;;;;;;;18.00;60.35;100879.63;5029435;28;20060;-24
2021/06/04 06:15:28;;;;;;;11.60;8.45;;;;;;;17.88;59.74;100887.00;5029137;28;20068;-24
2021/06/04 06:17:53;;;;;;;17.02;12.93;;;;;;;17.73;61.03;100881.34;5012570;28;20120;-24
2021/06/04 06:20:20;;;;;;;12.57;10.88;;;;;;;18.30;61.38;100881.09;5028720;28;20037;-24
2021/06/04 06:22:46;;;;;;;16.20;12.48;;;;;;;18.26;60.99;100882.66;5030724;28;20043;-26
2021/06/04 06:25:16;;;;;;;14.10;10.45;;;;;;;18.54;59.33;100875.47;5030094;28;20029;-27
2021/06/04 06:27:42;;;;;;;12.77;9.40;;;;;;;18.81;59.84;100906.06;5030284;28;20034;-26
2021/06/04 06:30:09;;;;;;;11.07;8.68;;;;;;;18.52;59.56;100897.31;5028707;28;20036;-26
2021/06/04 06:32:34;;;;;;;13.43;8.57;;;;;;;18.73;58.94;100887.56;5028448;28;20091;-26
2021/06/04 06:35:01;;;;;;;9.88;8.70;;;;;;;18.40;59.56;100894.72;5030143;28;20029;-26
2021/06/04 06:37:27;;;;;;;19.88;9.77;;;;;;;19.04;58.34;100899.56;5030240;28;20120;-26
2021/06/04 06:39:52;;;;;;;17.00;12.43;;;;;;;18.73;59.62;100898.38;5029863;28;20032;-26
2021/06/04 06:42:18;;;;;;;12.77;9.35;;;;;;;18.84;58.41;100897.44;5028287;28;20101;-26
2021/06/04 06:44:44;;;;;;;13.65;8.88;;;;;;;19.10;58.89;100880.66;5030216;28;20032;-26
2021/06/04 06:47:10;;;;;;;10.73;8.60;;;;;;;19.22;57.36;100889.44;5029641;28;20029;-26
2021/06/04 06:49:35;;;;;;;12.25;8.63;;;;;;;19.30;56.77;100871.94;5029765;28;20116;-25
2021/06/04 06:52:01;;;;;;;14.15;9.05;;;;;;;19.21;56.76;100888.63;5031580;28;20535;-25
2021/06/04 06:54:31;;;;;;;10.85;8.80;;;;;;;19.26;57.79;100887.84;5019759;28;20085;-24
2021/06/04 06:56:58;;;;;;;10.13;8.18;;;;;;;19.50;56.70;100892.94;5038950;28;20475;-25
2021/06/04 06:59:25;;;;;;;11.80;8.57;;;;;;;19.46;56.80;100895.34;5039628;28;20482;-24
2021/06/04 07:01:50;;;;;;;10.35;7.93;;;;;;;19.09;56.93;100890.69;5038380;28;20028;-26
2021/06/04 07:04:16;;;;;;;9.98;7.43;;;;;;;18.85;57.81;100884.75;5038575;28;20421;-26
2021/06/04 07:06:42;;;;;;;9.70;7.40;;;;;;;19.45;55.55;100899.94;5038361;28;20045;-25
2021/06/04 07:09:09;;;;;;;9.02;7.72;;;;;;;19.59;56.59;100883.25;5039535;28;20112;-25
2021/06/04 07:11:36;;;;;;;10.93;7.78;;;;;;;19.93;55.90;100886.50;5036891;28;20026;-25
2021/06/04 07:14:02;;;;;;;10.00;8.30;;;;;;;19.35;55.17;100875.50;5036790;28;20476;-25
2021/06/04 07:16:28;;;;;;;11.50;8.18;;;;;;;19.36;56.06;100895.25;5035922;28;20029;-25
2021/06/04 07:18:53;;;;;;;11.52;9.02;;;;;;;19.64;56.55;100884.13;5038290;28;20096;-26
2021/06/04 07:21:21;;;;;;;13.63;7.95;;;;;;;19.87;55.27;100896.47;5034137;28;20021;-25
2021/06/04 07:23:47;;;;;;;10.38;8.48;;;;;;;19.77;55.72;100895.59;5029139;28;20082;-25
2021/06/04 07:26:12;;;;;;;11.25;8.32;;;;;;;19.95;54.64;100887.06;5027578;28;20030;-25
2021/06/04 07:28:38;;;;;;;18.42;8.70;;;;;;;20.35;54.51;100890.25;5029115;28;20455;-25
2021/06/04 07:31:06;;;;;;;11.82;7.93;;;;;;;20.59;53.15;100886.03;5029199;28;20800;-24
2021/06/04 07:33:33;;;;;;;;;;;;;;;20.57;51.64;100881.94;5028457;28;20029;-25
2021/06/04 07:36:00;;;;;;;12.50;6.90;;;;;;;20.57;52.34;100876.53;5029003;28;19920;-25
2021/06/04 07:38:25;;;;;;;13.55;9.63;;;;;;;20.56;51.98;100870.28;5028969;28;20032;-25
2021/06/04 07:40:51;;;;;;;13.82;9.13;;;;;;;20.42;52.15;100853.72;5028890;28;20025;-24
2021/06/04 07:43:20;;;;;;;10.43;8.65;;;;;;;20.24;53.86;100878.56;5028452;28;20025;-24
2021/06/04 07:45:45;;;;;;;11.45;7.78;;;;;;;20.73;52.41;100886.38;5027777;28;20040;-24
2021/06/04 07:48:12;;;;;;;11.35;8.45;;;;;;;20.92;52.08;100883.16;5027443;28;20531;-25
2021/06/04 07:50:40;;;;;;;8.85;7.80;;;;;;;20.92;52.43;100883.97;5028539;28;20040;-24
2021/06/04 07:53:06;;;;;;;13.07;7.90;;;;;;;20.90;51.81;100891.53;5028531;28;20136;-24
2021/06/04 07:55:32;;;;;;;10.60;6.88;;;;;;;21.27;51.80;100890.53;5028258;28;20042;-24
2021/06/04 07:57:59;;;;;;;11.20;7.22;;;;;;;21.56;51.02;100880.00;5028095;28;20082;-24
2021/06/04 08:00:27;;;;;;;10.30;7.35;;;;;;;21.82;50.34;100888.09;5028360;28;20098;-24
2021/06/04 08:02:53;;;;;;;11.52;7.20;;;;;;;21.89;49.80;100896.78;5027416;28;20029;-24
2021/06/04 08:05:19;;;;;;;12.35;7.20;;;;;;;21.73;50.56;100889.75;5027044;28;20119;-24
2021/06/04 08:07:44;;;;;;;7.78;6.30;;;;;;;22.01;49.00;100889.16;5028212;28;20155;-24
2021/06/04 08:10:11;;;;;;;8.80;6.50;;;;;;;22.23;48.33;100868.97;5027872;28;20037;-25
2021/06/04 08:12:37;;;;;;;9.88;6.70;;;;;;;22.67;46.23;100881.88;5027905;28;20130;-24
2021/06/04 08:15:13;;;;;;;9.88;6.38;;;;;;;22.93;47.19;100881.72;5028097;28;20379;-24
2021/06/04 08:17:39;;;;;;;9.95;6.05;;;;;;;22.83;44.99;100871.72;5028236;28;20040;-26
2021/06/04 08:20:07;;;;;;;9.50;6.43;;;;;;;23.25;47.38;100879.34;5028438;28;20060;-25
2021/06/04 08:22:32;;;;;;;10.30;6.07;;;;;;;23.67;44.50;100875.16;5026440;28;20068;-26
2021/06/04 08:24:58;;;;;;;8.75;5.70;;;;;;;24.02;43.13;100881.38;5027825;28;20131;-25
2021/06/04 08:27:23;;;;;;;7.85;5.20;;;;;;;24.43;41.65;100880.91;5026861;28;20033;-25
2021/06/04 08:29:50;;;;;;;8.48;5.75;;;;;;;24.30;41.40;100870.72;5027915;28;20079;-24
2021/06/04 08:32:15;;;;;;;9.85;6.75;;;;;;;24.49;40.73;100875.38;5026334;28;20453;-25
2021/06/04 08:34:41;;;;;;;10.52;6.63;;;;;;;23.72;43.06;100866.16;5027785;28;20533;-24
2021/06/04 08:37:07;;;;;;;9.98;5.15;;;;;;;23.77;41.78;100878.94;5026677;28;20026;-24
2021/06/04 08:39:35;;;;;;;8.15;5.88;;;;;;;24.14;43.27;100874.72;5027685;28;20460;-24
2021/06/04 08:42:06;;;;;;;;;;;;;;;23.69;44.03;100871.34;5028122;28;20029;-24
2021/06/04 08:44:59;;;;;;;7.90;5.40;;;;;;;23.88;42.83;100875.00;5027527;28;19909;-24
2021/06/04 08:47:26;;;;;;;7.63;4.57;;;;;;;23.99;41.29;100876.53;5027734;28;20029;-27
2021/06/04 08:50:10;;;;;;;7.13;5.57;;;;;;;24.12;42.50;100875.00;5026265;28;20060;-24
2021/06/04 08:52:49;;;;;;;10.20;5.03;;;;;;;24.09;40.63;100852.97;5027810;28;20053;-24
2021/06/04 08:55:17;;;;;;;7.20;4.28;;;;;;;24.19;39.75;100870.03;5011468;28;20084;-24
2021/06/04 08:58:07;;;;;;;7.93;4.10;;;;;;;24.83;38.97;100862.41;5027849;28;20067;-24
2021/06/04 09:00:35;;;;;;;6.53;4.50;;;;;;;24.84;38.12;100864.00;5027299;28;20028;-24
2021/06/04 09:03:20;;;;;;;6.47;4.20;;;;;;;24.60;40.45;100857.81;5026488;28;20033;-24
2021/06/04 09:05:49;;;;;;;9.10;4.10;;;;;;;25.02;37.95;100869.75;5027683;28;20037;-24
2021/06/04 09:08:17;;;;;;;10.77;4.68;;;;;;;24.94;38.99;100875.88;5009955;28;20038;-24
2021/06/04 09:10:50;;;;;;;8.40;4.45;;;;;;;24.76;37.71;100859.22;5026088;28;20057;-24
2021/06/04 09:13:23;;;;;;;5.35;3.78;;;;;;;24.92;37.01;100875.38;4994490;28;20849;-24
2021/06/04 09:15:48;;;;;;;8.00;3.60;;;;;;;25.21;37.12;100870.59;5027207;28;20409;-24
2021/06/04 09:18:16;;;;;;;6.47;4.10;;;;;;;25.37;37.47;100870.31;5027264;28;20025;-24
2021/06/04 09:20:58;;;;;;;6.28;4.00;;;;;;;25.52;36.42;100861.88;5027320;28;20061;-24
2021/06/04 09:23:29;;;;;;;4.80;3.47;;;;;;;25.60;34.87;100872.13;5027531;28;20036;-24
2021/06/04 09:25:56;;;;;;;6.00;3.65;;;;;;;24.82;37.96;100843.59;5027405;28;20026;-24
2021/06/04 09:28:30;;;;;;;7.40;3.80;;;;;;;25.67;37.73;100875.25;5027240;28;20045;-25
2021/06/04 09:31:20;;;;;;;7.32;4.18;;;;;;;26.22;37.66;100874.50;5027336;28;20029;-24
2021/06/04 09:33:49;;;;;;;7.10;3.78;;;;;;;26.06;35.97;100865.81;5027117;28;20052;-24
2021/06/04 09:36:16;;;;;;;5.85;3.40;;;;;;;26.15;33.90;100863.16;5027279;28;20478;-24
2021/06/04 09:38:42;;;;;;;;;;;;;;;26.19;34.99;100858.72;5030434;28;20088;-24
2021/06/04 09:41:33;;;;;;;5.28;3.25;;;;;;;25.50;34.82;100855.91;5031033;28;20385;-24
2021/06/04 09:44:16;;;;;;;5.50;3.50;;;;;;;25.26;36.39;100853.31;5030077;28;20044;-24
2021/06/04 09:46:58;;;;;;;6.57;4.88;;;;;;;25.18;35.31;100845.78;5031116;28;20040;-26
2021/06/04 09:49:29;;;;;;;5.88;3.75;;;;;;;24.74;38.19;100852.44;5030830;28;20041;-24
2021/06/04 09:51:57;;;;;;;6.90;3.60;;;;;;;24.98;36.68;100853.16;5030773;28;20081;-24
2021/06/04 09:54:26;;;;;;;6.95;3.03;;;;;;;25.23;35.14;100842.97;5030299;28;20025;-24
2021/06/04 09:57:07;;;;;;;5.35;2.90;;;;;;;25.71;34.61;100852.81;5030560;28;20033;-24
2021/06/04 09:59:33;;;;;;;7.50;2.85;;;;;;;26.44;33.56;100857.38;5031006;28;20498;-24
2021/06/04 10:01:58;;;;;;;5.80;3.05;;;;;;;26.37;33.57;100846.03;5030677;28;20071;-26
2021/06/04 10:04:32;;;;;;;7.30;3.80;;;;;;;26.31;31.96;100835.53;5029212;28;20113;-27
2021/06/04 10:07:06;;;;;;;6.03;3.65;;;;;;;26.46;34.34;100838.75;5012740;28;20030;-24
2021/06/04 10:09:42;;;;;;;5.97;3.60;;;;;;;26.01;35.86;100841.31;5030500;28;20095;-24
2021/06/04 10:12:09;;;;;;;6.75;3.78;;;;;;;25.70;36.00;100815.66;5029358;28;20044;-25
2021/06/04 10:20:34;;;;;;;7.55;3.70;;;;;;;26.28;34.46;100844.34;5029960;28;20033;-24
2021/06/04 10:23:08;;;;;;;7.03;3.42;;;;;;;26.52;33.89;100839.44;5030175;28;20029;-24
2021/06/04 10:25:47;;;;;;;4.65;3.00;;;;;;;26.12;34.06;100841.91;5029071;28;20025;-24
2021/06/04 10:28:36;;;;;;;6.03;3.80;;;;;;;25.80;35.81;100834.59;5030238;28;20446;-24
2021/06/04 10:31:08;;;;;;;6.32;3.08;;;;;;;25.12;34.63;100838.78;5029186;28;20136;-24
2021/06/04 10:33:45;;;;;;;7.40;3.10;;;;;;;25.51;35.96;100841.13;5030083;28;20061;-24
2021/06/04 10:36:11;;;;;;;;;;;;;;;25.70;34.99;100832.84;5030080;28;20444;-25
2021/06/04 10:38:44;;;;;;;7.50;3.67;;;;;;;26.35;34.52;100839.25;5028677;28;19913;-24
2021/06/04 10:41:15;;;;;;;7.13;3.67;;;;;;;26.55;33.92;100840.75;5028835;28;20048;-25
2021/06/04 10:43:45;;;;;;;5.40;3.83;;;;;;;26.57;34.23;100847.56;5028820;28;20115;-24
2021/06/04 10:46:24;;;;;;;8.50;4.00;;;;;;;26.05;34.83;100847.81;5028515;28;20141;-25
2021/06/04 10:49:08;;;;;;;7.35;3.78;;;;;;;26.29;33.65;100841.28;5029618;28;20037;-26
2021/06/04 10:51:36;;;;;;;5.03;3.40;;;;;;;26.31;34.89;100839.06;5029482;28;20045;-24
2021/06/04 10:54:35;;;;;;;8.20;3.70;;;;;;;26.37;35.56;100843.31;5028682;28;20386;-24
2021/06/04 10:57:04;;;;;;;6.25;3.20;;;;;;;26.55;35.12;100843.47;5029583;28;20262;-24
2021/06/04 10:59:38;;;;;;;7.82;3.63;;;;;;;26.10;34.75;100821.47;5012210;28;20033;-24
2021/06/04 11:02:33;;;;;;;10.68;3.35;;;;;;;25.83;35.77;100831.28;5028363;28;20418;-24
2021/06/04 11:05:29;;;;;;;7.22;3.63;;;;;;;25.94;34.77;100840.09;5028290;28;20116;-24
2021/06/04 11:08:21;;;;;;;6.03;3.40;;;;;;;25.97;37.19;100834.84;5029744;28;20536;-24
2021/06/04 11:10:52;;;;;;;7.43;3.60;;;;;;;25.17;38.36;100834.06;5013748;28;20037;-24
2021/06/04 11:13:24;;;;;;;9.63;4.00;;;;;;;24.94;38.77;100837.69;5028207;28;20032;-24
2021/06/04 11:16:13;;;;;;;9.18;3.97;;;;;;;24.91;39.78;100838.25;5027826;28;20034;-25
2021/06/04 11:18:45;;;;;;;6.07;3.75;;;;;;;24.74;41.14;100847.78;5011808;28;20417;-24
2021/06/04 11:21:20;;;;;;;5.53;3.83;;;;;;;24.64;41.07;100853.38;5029212;28;20037;-24
2021/06/04 11:23:52;;;;;;;9.43;3.50;;;;;;;24.01;41.51;100829.94;5012305;28;20063;-24
2021/06/04 11:26:25;;;;;;;6.68;3.78;;;;;;;23.68;42.31;100837.88;5011098;28;20044;-25
2021/06/04 11:29:01;;;;;;;6.53;3.53;;;;;;;23.34;43.50;100848.81;5027965;28;20022;-24
2021/06/04 11:31:55;;;;;;;6.03;3.20;;;;;;;23.13;42.86;100848.97;5029084;28;20037;-24
2021/06/04 11:34:55;;;;;;;5.28;3.15;;;;;;;23.13;43.79;100843.53;5028205;28;20022;-25
2021/06/04 11:37:36;;;;;;;11.45;5.40;;;;;;;23.29;43.29;100837.94;5027948;28;20035;-24
2021/06/04 11:40:12;;;;;;;7.13;3.35;;;;;;;23.30;42.81;100842.31;5029012;28;20029;-24